Time;durP1;ratioP1;P1;durP2;ratioP2;P2;SDS_P1;SDS_P2;PMS_P1;PMS_P2;Temp;Humidity;BMP_temperature;BMP_pressure;BME280_temperature;BME280_humidity;BME280_pressure;Samples;Min_cycle;Max_cycle;Signal;HPM_P1;HPM_P2
2021/01/15 00:01:38;;;;;;;56.20;34.90;;;3.00;80.60;;;;;;4882165;28;91313;-76
2021/01/15 00:04:05;;;;;;;51.63;32.57;;;3.00;80.80;;;;;;4900292;28;91498;-77
2021/01/15 00:06:31;;;;;;;54.37;33.97;;;3.00;80.70;;;;;;4893787;28;86973;-76
2021/01/15 00:08:57;;;;;;;51.27;31.90;;;3.00;80.70;;;;;;4861324;28;87883;-76
2021/01/15 00:11:32;;;;;;;52.50;32.10;;;3.00;80.70;;;;;;4860202;28;91494;-76
2021/01/15 00:14:00;;;;;;;52.30;32.17;;;3.00;80.60;;;;;;4881664;28;87412;-77
2021/01/15 00:16:28;;;;;;;51.47;32.10;;;3.00;80.50;;;;;;4879455;28;87913;-76
2021/01/15 00:18:55;;;;;;;48.53;31.93;;;3.00;80.50;;;;;;4881579;28;87344;-76
2021/01/15 00:21:27;;;;;;;50.23;32.30;;;3.00;80.50;;;;;;4884490;28;90399;-77
2021/01/15 00:23:55;;;;;;;48.10;30.83;;;3.00;80.50;;;;;;4866989;28;90159;-77
2021/01/15 00:26:23;;;;;;;49.33;31.70;;;3.10;80.50;;;;;;4880870;28;87018;-77
2021/01/15 00:28:50;;;;;;;49.73;31.47;;;3.00;80.40;;;;;;4880097;28;87611;-76
2021/01/15 00:31:15;;;;;;;50.17;31.23;;;3.10;80.50;;;;;;4864398;28;90688;-78
2021/01/15 00:33:42;;;;;;;49.60;30.67;;;3.10;80.50;;;;;;4877641;28;87901;-77
2021/01/15 00:36:08;;;;;;;49.03;30.83;;;3.00;80.50;;;;;;4863193;28;87116;-76
2021/01/15 00:38:35;;;;;;;45.87;29.90;;;3.00;80.70;;;;;;4861991;28;87721;-76
2021/01/15 00:41:10;;;;;;;46.60;30.10;;;3.00;80.80;;;;;;4878949;28;89276;-76
2021/01/15 00:43:36;;;;;;;47.30;29.13;;;3.00;81.00;;;;;;4877201;28;92421;-76
2021/01/15 00:46:07;;;;;;;45.50;29.47;;;3.00;81.00;;;;;;4875270;28;86912;-76
2021/01/15 00:48:36;;;;;;;43.20;28.43;;;3.00;81.00;;;;;;4860708;28;87997;-77
2021/01/15 00:51:09;;;;;;;42.63;29.43;;;3.00;80.90;;;;;;4874658;28;91647;-76
2021/01/15 00:53:36;;;;;;;41.20;28.20;;;3.00;80.90;;;;;;4859387;28;91240;-76
2021/01/15 00:56:02;;;;;;;44.53;29.50;;;3.00;81.00;;;;;;4894450;28;88264;-77
2021/01/15 00:58:28;;;;;;;45.00;28.40;;;3.00;80.90;;;;;;4859718;28;87476;-75
2021/01/15 01:00:54;;;;;;;46.67;29.53;;;3.10;81.00;;;;;;4877494;28;89013;-76
2021/01/15 01:03:31;;;;;;;43.10;28.97;;;3.00;81.10;;;;;;4875531;28;88189;-76
2021/01/15 01:05:57;;;;;;;40.80;27.30;;;3.00;81.20;;;;;;4875038;28;88116;-77
2021/01/15 01:08:23;;;;;;;45.00;28.83;;;3.00;81.30;;;;;;4887654;28;87850;-76
2021/01/15 01:10:49;;;;;;;44.83;29.17;;;3.00;81.30;;;;;;4891381;28;91099;-76
2021/01/15 01:13:15;;;;;;;47.03;31.00;;;3.00;81.20;;;;;;4891550;28;88119;-76
2021/01/15 01:15:41;;;;;;;50.07;31.70;;;3.00;81.20;;;;;;4894676;28;87431;-76
2021/01/15 01:18:07;;;;;;;49.87;29.83;;;2.90;81.30;;;;;;4884550;28;87259;-76
2021/01/15 01:20:33;;;;;;;44.93;29.87;;;2.90;81.50;;;;;;4890962;28;92060;-76
2021/01/15 01:22:58;;;;;;;47.50;30.50;;;2.90;81.50;;;;;;4891282;28;90992;-76
2021/01/15 01:25:24;;;;;;;45.17;29.67;;;2.90;82.10;;;;;;4894632;28;87572;-76
2021/01/15 01:27:50;;;;;;;50.10;31.80;;;2.90;81.50;;;;;;4892737;28;86985;-76
2021/01/15 01:30:16;;;;;;;46.03;30.17;;;2.90;81.80;;;;;;4892530;28;88913;-76
2021/01/15 01:32:42;;;;;;;50.00;30.80;;;2.90;81.80;;;;;;4892410;28;91944;-76
2021/01/15 01:35:09;;;;;;;49.27;30.60;;;2.80;81.70;;;;;;4891216;28;87077;-76
2021/01/15 01:37:34;;;;;;;50.77;29.50;;;2.90;81.90;;;;;;4892431;28;87131;-76
2021/01/15 01:40:00;;;;;;;47.13;31.80;;;2.80;81.80;;;;;;4891230;28;91238;-76
2021/01/15 01:42:26;;;;;;;49.93;32.37;;;2.80;81.90;;;;;;4892085;28;87417;-76
2021/01/15 01:44:52;;;;;;;51.33;31.93;;;2.90;82.00;;;;;;4875185;28;86915;-76
2021/01/15 01:47:18;;;;;;;48.17;30.10;;;2.90;81.90;;;;;;4894073;28;87963;-76
2021/01/15 01:49:45;;;;;;;47.80;31.70;;;2.90;82.00;;;;;;4890795;28;92927;-76
2021/01/15 01:52:11;;;;;;;48.03;31.47;;;2.90;82.00;;;;;;4892612;28;91461;-76
2021/01/15 01:54:37;;;;;;;49.30;31.30;;;2.90;82.00;;;;;;4890542;28;88121;-76
2021/01/15 01:57:05;;;;;;;44.50;28.90;;;2.90;82.00;;;;;;4891940;28;87914;-76
2021/01/15 01:59:32;;;;;;;48.63;28.63;;;2.90;81.80;;;;;;4894198;28;88741;-76
2021/01/15 02:01:58;;;;;;;47.07;28.83;;;2.90;81.70;;;;;;4895762;28;91603;-76
2021/01/15 02:04:23;;;;;;;44.83;27.40;;;3.00;81.80;;;;;;4895174;28;87464;-76
2021/01/15 02:06:49;;;;;;;44.63;28.80;;;3.00;81.80;;;;;;4893346;28;87737;-76
2021/01/15 02:09:23;;;;;;;49.27;30.93;;;3.00;81.70;;;;;;4896052;28;91661;-77
2021/01/15 02:12:05;;;;;;;48.77;30.17;;;3.00;81.80;;;;;;4895047;28;91039;-76
2021/01/15 02:14:49;;;;;;;44.60;28.27;;;3.00;81.50;;;;;;4880337;28;87031;-76
2021/01/15 02:17:18;;;;;;;44.60;28.40;;;3.00;81.60;;;;;;4877389;28;87054;-76
2021/01/15 02:20:08;;;;;;;47.17;30.70;;;3.00;81.60;;;;;;4894103;28;92051;-76
2021/01/15 02:22:55;;;;;;;47.57;30.03;;;2.90;81.90;;;;;;4894688;28;89232;-76
2021/01/15 02:25:50;;;;;;;42.17;26.50;;;2.90;82.10;;;;;;4879388;28;87474;-76
2021/01/15 02:28:32;;;;;;;43.47;28.00;;;2.90;82.20;;;;;;4897444;28;88333;-76
2021/01/15 02:31:25;;;;;;;46.78;30.10;;;2.90;82.20;;;;;;4895029;28;90589;-76
2021/01/15 02:34:23;;;;;;;43.60;28.87;;;3.00;82.20;;;;;;4896031;28;91161;-76
2021/01/15 02:37:16;;;;;;;41.63;27.97;;;3.00;82.10;;;;;;4895348;28;87006;-76
2021/01/15 02:40:10;;;;;;;46.30;28.27;;;3.00;82.20;;;;;;4895017;28;88184;-76
2021/01/15 02:42:38;;;;;;;45.67;29.87;;;2.90;82.40;;;;;;4894349;28;92099;-76
2021/01/15 02:45:12;;;;;;;42.30;28.23;;;2.90;82.40;;;;;;4887088;28;91647;-76
2021/01/15 02:48:04;;;;;;;42.63;27.93;;;3.00;82.60;;;;;;4878856;28;88022;-77
2021/01/15 02:50:30;;;;;;;43.35;27.38;;;3.00;82.60;;;;;;4874401;28;87806;-76
2021/01/15 02:52:57;;;;;;;40.30;26.87;;;3.00;82.70;;;;;;4893532;28;89590;-76
2021/01/15 02:55:24;;;;;;;44.03;27.77;;;3.00;82.70;;;;;;4886643;28;91409;-76
2021/01/15 02:57:51;;;;;;;41.00;26.93;;;3.00;82.80;;;;;;4894786;28;86906;-76
2021/01/15 03:00:22;;;;;;;41.17;26.90;;;3.00;82.80;;;;;;4891770;28;87134;-76
2021/01/15 03:02:53;;;;;;;37.47;26.80;;;3.00;82.80;;;;;;4877589;28;92119;-76
2021/01/15 03:05:21;;;;;;;37.50;26.05;;;3.00;82.80;;;;;;4894884;28;87871;-76
2021/01/15 03:07:50;;;;;;;37.50;26.03;;;3.00;82.70;;;;;;4894324;28;87345;-76
2021/01/15 03:10:20;;;;;;;41.90;26.77;;;3.00;82.60;;;;;;4895206;28;87011;-76
2021/01/15 03:12:48;;;;;;;38.87;26.97;;;3.00;82.50;;;;;;4877556;28;91323;-76
2021/01/15 03:15:16;;;;;;;34.77;23.17;;;3.00;82.60;;;;;;4869775;28;92328;-76
2021/01/15 03:17:45;;;;;;;36.10;24.77;;;3.00;82.50;;;;;;4869954;28;87416;-76
2021/01/15 03:20:11;;;;;;;36.17;23.37;;;3.00;82.50;;;;;;4862963;28;87924;-76
2021/01/15 03:22:45;;;;;;;40.47;25.13;;;3.00;82.50;;;;;;4875989;28;87780;-76
2021/01/15 03:25:12;;;;;;;40.90;26.70;;;3.00;82.60;;;;;;4864822;28;91548;-76
2021/01/15 03:27:43;;;;;;;42.10;26.50;;;3.00;82.70;;;;;;4878464;28;87092;-76
2021/01/15 03:30:11;;;;;;;34.23;24.20;;;3.00;82.80;;;;;;4879041;28;88150;-76
2021/01/15 03:32:37;;;;;;;39.97;25.07;;;3.10;82.70;;;;;;4876812;28;88461;-76
2021/01/15 03:35:05;;;;;;;33.60;22.23;;;3.10;82.60;;;;;;4860057;28;91876;-76
2021/01/15 03:37:35;;;;;;;32.63;24.43;;;3.10;82.50;;;;;;4860305;28;88279;-76
2021/01/15 03:40:02;;;;;;;38.07;24.87;;;3.10;82.70;;;;;;4893474;28;87353;-77
2021/01/15 03:42:28;;;;;;;36.07;23.87;;;3.10;82.70;;;;;;4878764;28;91133;-77
2021/01/15 03:44:54;;;;;;;35.27;24.07;;;3.10;82.60;;;;;;4876002;28;91531;-76
2021/01/15 03:47:20;;;;;;;34.37;24.50;;;3.10;82.50;;;;;;4895797;28;87119;-76
2021/01/15 03:49:46;;;;;;;33.60;24.30;;;3.10;82.40;;;;;;4892261;28;87201;-76
2021/01/15 03:52:12;;;;;;;33.60;23.47;;;3.10;82.40;;;;;;4877537;28;89593;-76
2021/01/15 03:54:38;;;;;;;34.93;24.37;;;3.10;82.20;;;;;;4861130;28;91248;-76
2021/01/15 03:57:04;;;;;;;33.20;23.27;;;3.10;82.20;;;;;;4862417;28;87534;-76
2021/01/15 03:59:30;;;;;;;33.73;24.17;;;3.10;82.20;;;;;;4878331;28;87404;-76
2021/01/15 04:01:56;;;;;;;34.00;21.97;;;3.20;82.50;;;;;;4876377;28;92432;-76
2021/01/15 04:04:22;;;;;;;29.57;20.77;;;3.10;82.40;;;;;;4875765;28;92171;-77
2021/01/15 04:06:48;;;;;;;30.20;21.00;;;3.10;82.20;;;;;;4861986;28;87673;-76
2021/01/15 04:09:14;;;;;;;30.97;20.73;;;3.10;82.10;;;;;;4893191;28;87027;-76
2021/01/15 04:11:39;;;;;;;31.60;20.93;;;3.10;81.90;;;;;;4893602;28;87672;-76
2021/01/15 04:14:05;;;;;;;31.80;20.20;;;3.10;82.00;;;;;;4891854;28;88912;-76
2021/01/15 04:16:31;;;;;;;30.73;21.20;;;3.10;81.60;;;;;;4877326;28;87172;-76
2021/01/15 04:18:57;;;;;;;29.77;20.73;;;3.10;81.40;;;;;;4892535;28;86463;-76
2021/01/15 04:21:23;;;;;;;29.20;19.40;;;3.10;81.60;;;;;;4895468;28;88658;-77
2021/01/15 04:23:49;;;;;;;28.57;20.47;;;3.10;81.50;;;;;;4892818;28;91321;-76
2021/01/15 04:26:18;;;;;;;23.87;18.27;;;3.20;81.20;;;;;;4892112;28;87955;-76
2021/01/15 04:28:45;;;;;;;24.83;18.27;;;3.10;81.10;;;;;;4890786;28;87259;-76
2021/01/15 04:31:19;;;;;;;27.30;18.27;;;3.20;81.40;;;;;;4892264;28;88304;-77
2021/01/15 04:33:45;;;;;;;23.67;18.00;;;3.10;82.00;;;;;;4893539;28;89295;-76
2021/01/15 04:36:14;;;;;;;25.03;18.07;;;3.20;81.40;;;;;;4891086;28;87074;-77
2021/01/15 04:38:41;;;;;;;26.47;18.73;;;3.20;81.30;;;;;;4882980;28;88089;-76
2021/01/15 04:41:08;;;;;;;22.63;17.03;;;3.20;81.10;;;;;;4894091;28;88983;-76
2021/01/15 04:43:38;;;;;;;23.10;17.13;;;3.20;80.90;;;;;;4892326;28;87217;-76
2021/01/15 04:46:04;;;;;;;28.67;19.50;;;3.20;80.60;;;;;;4878212;28;87003;-76
2021/01/15 04:48:34;;;;;;;26.47;19.00;;;3.20;80.30;;;;;;4886965;28;89605;-76
2021/01/15 04:51:01;;;;;;;26.60;18.57;;;3.20;80.10;;;;;;4893063;28;92107;-76
2021/01/15 04:53:38;;;;;;;29.90;19.13;;;3.20;79.90;;;;;;4890824;28;92543;-76
2021/01/15 04:56:05;;;;;;;25.30;17.87;;;3.10;79.80;;;;;;4878418;28;87003;-76
2021/01/15 04:58:45;;;;;;;29.07;18.53;;;3.10;79.40;;;;;;4891160;28;87834;-77
2021/01/15 05:01:13;;;;;;;25.20;18.40;;;3.10;79.30;;;;;;4891743;28;88853;-76
2021/01/15 05:03:42;;;;;;;29.33;19.17;;;3.00;78.90;;;;;;4891365;28;91440;-76
2021/01/15 05:06:08;;;;;;;27.10;18.90;;;3.00;79.70;;;;;;4883286;28;87813;-76
2021/01/15 05:08:36;;;;;;;25.27;18.80;;;2.90;79.10;;;;;;4893843;28;87391;-76
2021/01/15 05:11:03;;;;;;;29.17;19.57;;;2.80;80.20;;;;;;4895416;28;86961;-76
2021/01/15 05:13:35;;;;;;;29.07;19.50;;;2.80;81.00;;;;;;4893297;28;89413;-76
2021/01/15 05:16:03;;;;;;;27.43;20.73;;;2.80;80.80;;;;;;4893716;28;88026;-76
2021/01/15 05:18:32;;;;;;;26.17;19.20;;;2.80;81.10;;;;;;4893225;28;87878;-76
2021/01/15 05:20:58;;;;;;;30.17;19.13;;;2.70;81.80;;;;;;4892581;28;88690;-76
2021/01/15 05:23:24;;;;;;;28.67;20.77;;;2.70;82.20;;;;;;4894645;28;91580;-77
2021/01/15 05:25:50;;;;;;;29.30;21.30;;;2.70;82.10;;;;;;4892780;28;87082;-76
2021/01/15 05:28:18;;;;;;;27.23;19.30;;;2.80;81.90;;;;;;4892392;28;87911;-76
2021/01/15 05:30:44;;;;;;;28.17;18.77;;;2.80;81.80;;;;;;4891353;28;87737;-76
2021/01/15 05:33:15;;;;;;;25.20;19.47;;;2.80;81.90;;;;;;4892349;28;91186;-76
2021/01/15 05:35:42;;;;;;;27.80;19.83;;;2.80;82.10;;;;;;4878499;28;87101;-76
2021/01/15 05:38:10;;;;;;;29.10;20.30;;;2.90;81.80;;;;;;4889068;28;87933;-76
2021/01/15 05:40:41;;;;;;;32.37;21.43;;;2.90;81.50;;;;;;4890934;28;89147;-76
2021/01/15 05:43:30;;;;;;;29.73;21.17;;;2.90;81.40;;;;;;4893969;28;88531;-76
2021/01/15 05:46:06;;;;;;;28.97;20.43;;;2.90;81.20;;;;;;4895903;28;86976;-76
2021/01/15 05:48:33;;;;;;;28.87;21.13;;;2.90;81.10;;;;;;4898018;28;87599;-76
2021/01/15 05:50:59;;;;;;;30.53;21.67;;;2.90;80.90;;;;;;4895350;28;90612;-76
2021/01/15 05:53:25;;;;;;;33.17;22.40;;;2.90;81.00;;;;;;4895883;28;88311;-76
2021/01/15 05:56:09;;;;;;;33.90;21.97;;;2.90;81.10;;;;;;4876032;28;87280;-76
2021/01/15 05:58:36;;;;;;;34.93;21.23;;;2.90;80.60;;;;;;4909315;28;87838;-75
2021/01/15 06:01:02;;;;;;;29.83;21.27;;;2.90;80.30;;;;;;4896312;28;88195;-76
2021/01/15 06:03:28;;;;;;;29.77;21.67;;;2.90;80.20;;;;;;4892942;28;88458;-76
2021/01/15 06:05:54;;;;;;;30.33;20.13;;;2.90;80.30;;;;;;4892734;28;88071;-76
2021/01/15 06:08:20;;;;;;;35.80;22.63;;;2.90;80.20;;;;;;4894251;28;86866;-76
2021/01/15 06:10:48;;;;;;;37.27;24.40;;;2.80;80.00;;;;;;4876930;28;90496;-76
2021/01/15 06:13:39;;;;;;;33.13;23.43;;;2.80;80.00;;;;;;4877497;28;90062;-76
2021/01/15 06:16:05;;;;;;;37.17;24.20;;;2.80;80.00;;;;;;4879536;28;87130;-76
2021/01/15 06:18:32;;;;;;;35.83;24.30;;;2.80;80.60;;;;;;4896136;28;87156;-76
2021/01/15 06:21:08;;;;;;;36.20;25.50;;;2.80;79.90;;;;;;4897403;28;88212;-76
2021/01/15 06:23:41;;;;;;;38.73;25.27;;;2.80;79.90;;;;;;4863276;28;91351;-76
2021/01/15 06:26:09;;;;;;;35.07;24.03;;;2.70;80.50;;;;;;4877562;28;87893;-76
2021/01/15 06:28:36;;;;;;;30.30;22.33;;;2.80;80.00;;;;;;4878343;28;87596;-76
2021/01/15 06:31:05;;;;;;;33.40;23.40;;;2.80;79.70;;;;;;4896182;28;89070;-76
2021/01/15 06:33:31;;;;;;;33.87;23.40;;;2.80;79.30;;;;;;4865068;28;92209;-76
2021/01/15 06:35:57;;;;;;;30.57;21.07;;;2.70;79.60;;;;;;4880318;28;86924;-76
2021/01/15 06:38:29;;;;;;;35.50;24.20;;;2.70;79.50;;;;;;4880270;28;87412;-76
2021/01/15 06:40:56;;;;;;;33.05;22.17;;;2.70;79.80;;;;;;4881227;28;91455;-76
2021/01/15 06:43:36;;;;;;;35.00;24.13;;;2.70;79.40;;;;;;4878801;28;91167;-77
2021/01/15 06:46:04;;;;;;;30.30;21.97;;;2.70;79.40;;;;;;4878735;28;87269;-76
2021/01/15 06:48:38;;;;;;;31.60;22.20;;;2.70;79.70;;;;;;4883787;28;86512;-76
2021/01/15 06:51:08;;;;;;;31.67;22.30;;;2.70;79.20;;;;;;4877744;28;92059;-76
2021/01/15 06:53:38;;;;;;;30.27;22.27;;;2.80;79.00;;;;;;4876830;28;87413;-75
2021/01/15 06:56:06;;;;;;;33.93;21.93;;;2.70;78.90;;;;;;4876329;28;87994;-76
2021/01/15 06:58:39;;;;;;;38.30;21.97;;;2.80;78.40;;;;;;4896886;28;87101;-77
2021/01/15 07:01:19;;;;;;;36.03;22.77;;;2.80;78.60;;;;;;4876499;28;91529;-76
2021/01/15 07:03:51;;;;;;;32.30;21.93;;;2.80;78.70;;;;;;4877314;28;87649;-76
2021/01/15 07:06:34;;;;;;;26.50;19.02;;;2.80;77.60;;;;;;4879381;28;87098;-76
2021/01/15 07:09:02;;;;;;;33.33;20.93;;;2.80;75.20;;;;;;4878934;28;88693;-76
2021/01/15 07:11:29;;;;;;;25.03;18.17;;;2.70;74.80;;;;;;4878803;28;91619;-77
2021/01/15 07:14:01;;;;;;;25.37;18.43;;;2.60;74.10;;;;;;4894419;28;87766;-76
2021/01/15 07:16:32;;;;;;;27.52;18.58;;;2.60;73.20;;;;;;4877162;28;87041;-76
2021/01/15 07:19:15;;;;;;;31.13;19.30;;;2.60;73.10;;;;;;4861567;28;88601;-76
2021/01/15 07:22:09;;;;;;;25.73;18.47;;;2.60;72.90;;;;;;4876041;28;92272;-76
2021/01/15 07:24:36;;;;;;;28.27;18.40;;;2.60;71.70;;;;;;4878639;28;92607;-76
2021/01/15 07:27:04;;;;;;;28.73;18.13;;;2.60;70.60;;;;;;4878582;28;87179;-76
2021/01/15 07:29:34;;;;;;;27.13;17.97;;;2.70;70.70;;;;;;4896583;28;87207;-76
2021/01/15 07:32:08;;;;;;;29.13;20.03;;;2.80;71.20;;;;;;4860342;28;91352;-76
2021/01/15 07:34:37;;;;;;;27.57;18.73;;;2.90;72.50;;;;;;4878610;28;91515;-76
2021/01/15 07:37:29;;;;;;;28.83;19.67;;;2.90;72.90;;;;;;4882071;28;87180;-76
2021/01/15 07:40:18;;;;;;;30.23;19.98;;;3.00;73.10;;;;;;4880573;28;86990;-76
2021/01/15 07:42:43;;;;;;;28.70;19.73;;;3.00;72.50;;;;;;4893143;28;86941;-76
2021/01/15 07:45:32;;;;;;;29.13;20.27;;;3.00;72.40;;;;;;4868047;28;88606;-77
2021/01/15 07:48:04;;;;;;;28.40;19.70;;;2.90;72.10;;;;;;4883834;28;88135;-76
2021/01/15 07:50:44;;;;;;;30.83;20.83;;;2.80;72.90;;;;;;4895596;28;87100;-76
2021/01/15 07:53:16;;;;;;;25.63;17.97;;;2.80;73.00;;;;;;4863393;28;91187;-76
2021/01/15 07:55:54;;;;;;;25.33;18.33;;;2.70;70.80;;;;;;4863981;28;89801;-76
2021/01/15 07:58:25;;;;;;;29.73;19.17;;;2.70;71.50;;;;;;4885322;28;87364;-76
2021/01/15 08:00:52;;;;;;;25.63;18.38;;;2.80;71.80;;;;;;4877569;28;87433;-77
2021/01/15 08:03:18;;;;;;;31.67;20.53;;;2.80;71.30;;;;;;4874584;28;88708;-76
2021/01/15 08:05:45;;;;;;;30.47;20.87;;;2.80;71.40;;;;;;4877981;28;89613;-76
2021/01/15 08:08:16;;;;;;;31.67;21.10;;;2.80;71.90;;;;;;4880666;28;87145;-76
2021/01/15 08:10:44;;;;;;;34.25;21.50;;;2.80;72.20;;;;;;4892044;28;87432;-76
2021/01/15 08:13:24;;;;;;;28.00;17.77;;;2.80;71.50;;;;;;4893459;28;92181;-77
2021/01/15 08:15:51;;;;;;;28.63;20.17;;;2.80;71.20;;;;;;4893255;28;92167;-76
2021/01/15 08:18:17;;;;;;;31.30;20.30;;;2.90;71.20;;;;;;4892175;28;86957;-77
2021/01/15 08:20:53;;;;;;;32.00;21.73;;;2.80;70.90;;;;;;4891367;28;87234;-76
2021/01/15 08:23:21;;;;;;;42.40;28.30;;;2.90;70.80;;;;;;4885151;28;91963;-77
2021/01/15 08:25:52;;;;;;;45.70;29.27;;;2.90;70.90;;;;;;4874892;28;91434;-77
2021/01/15 08:28:19;;;;;;;40.73;23.63;;;2.90;71.70;;;;;;4876291;28;87060;-77
2021/01/15 08:30:58;;;;;;;33.73;23.00;;;2.90;72.20;;;;;;4891414;28;88014;-77
2021/01/15 08:33:24;;;;;;;48.57;29.57;;;2.90;72.30;;;;;;4890689;28;91505;-77
2021/01/15 08:35:55;;;;;;;55.17;31.83;;;3.00;72.40;;;;;;4899596;28;89975;-76
2021/01/15 08:38:37;;;;;;;48.93;32.10;;;3.00;72.80;;;;;;4903669;28;87806;-77
2021/01/15 08:41:24;;;;;;;52.42;34.67;;;3.00;72.30;;;;;;4903558;28;87543;-77
2021/01/15 08:43:55;;;;;;;51.03;32.13;;;3.00;72.50;;;;;;4886521;28;91424;-76
2021/01/15 08:46:22;;;;;;;48.33;31.47;;;3.00;73.00;;;;;;4899826;28;91020;-76
2021/01/15 08:48:49;;;;;;;50.83;31.87;;;3.00;73.50;;;;;;4892604;28;86929;-75
2021/01/15 08:51:21;;;;;;;46.27;29.23;;;3.00;73.80;;;;;;4898410;28;87028;-76
2021/01/15 08:54:12;;;;;;;;;;;3.00;74.30;;;;;;4892618;28;86973;-76
2021/01/15 08:56:41;;;;;;;47.77;25.63;;;3.10;74.60;;;;;;4900765;28;88033;-76
2021/01/15 08:59:26;;;;;;;42.63;26.13;;;3.00;74.60;;;;;;4890781;28;87153;-77
2021/01/15 09:01:53;;;;;;;39.17;26.63;;;3.00;75.00;;;;;;4891014;28;87389;-78
2021/01/15 09:04:32;;;;;;;42.67;26.67;;;2.90;75.00;;;;;;4897489;28;91434;-77
2021/01/15 09:07:00;;;;;;;42.17;28.00;;;2.90;75.60;;;;;;4893654;28;87456;-77
2021/01/15 09:09:29;;;;;;;40.30;26.53;;;2.90;75.60;;;;;;4877319;28;87192;-78
2021/01/15 09:12:01;;;;;;;37.60;25.53;;;2.90;75.70;;;;;;4877120;28;88248;-77
2021/01/15 09:14:27;;;;;;;44.70;26.17;;;2.90;74.90;;;;;;4867671;28;91749;-77
2021/01/15 09:16:54;;;;;;;39.77;25.43;;;2.90;75.00;;;;;;4887162;28;87755;-77
2021/01/15 09:19:21;;;;;;;48.53;30.77;;;2.90;74.70;;;;;;4885817;28;87267;-77
2021/01/15 09:21:52;;;;;;;45.53;28.03;;;2.90;74.90;;;;;;4871294;28;88079;-77
2021/01/15 09:24:20;;;;;;;49.65;29.70;;;2.90;75.50;;;;;;4890402;28;88680;-78
2021/01/15 09:26:47;;;;;;;47.10;30.83;;;2.90;75.70;;;;;;4888864;28;90012;-78
2021/01/15 09:29:14;;;;;;;51.13;31.83;;;2.90;76.10;;;;;;4890756;28;89132;-78
2021/01/15 09:31:41;;;;;;;53.40;33.13;;;2.80;76.90;;;;;;4890873;28;87487;-77
2021/01/15 09:34:12;;;;;;;56.13;33.47;;;2.80;77.50;;;;;;4878759;28;91283;-78
2021/01/15 09:36:43;;;;;;;52.10;32.70;;;2.80;77.00;;;;;;4891705;28;91573;-77
2021/01/15 09:39:10;;;;;;;52.77;31.97;;;2.80;77.00;;;;;;4892793;28;87030;-77
2021/01/15 09:41:45;;;;;;;90.67;45.00;;;2.80;76.40;;;;;;4895743;28;87208;-78
2021/01/15 09:44:12;;;;;;;59.57;34.57;;;2.70;76.70;;;;;;4900038;28;87218;-78
2021/01/15 09:46:39;;;;;;;65.57;37.90;;;2.70;76.70;;;;;;4884997;28;87978;-78
2021/01/15 09:49:05;;;;;;;71.83;39.43;;;2.60;77.70;;;;;;4890992;28;87530;-78
2021/01/15 09:51:31;;;;;;;54.37;33.27;;;2.60;78.20;;;;;;4890375;28;88779;-78
2021/01/15 09:53:58;;;;;;;49.70;31.43;;;2.60;77.60;;;;;;4891204;28;89048;-78
2021/01/15 09:56:28;;;;;;;47.13;31.40;;;2.50;76.80;;;;;;4886812;28;91422;-77
2021/01/15 09:58:58;;;;;;;48.83;30.07;;;2.50;77.40;;;;;;4888164;28;87029;-78
2021/01/15 10:01:24;;;;;;;58.27;33.83;;;2.50;77.20;;;;;;4881579;28;88321;-78
2021/01/15 10:03:51;;;;;;;48.13;32.63;;;2.40;77.70;;;;;;4880606;28;91941;-76
2021/01/15 10:06:18;;;;;;;57.00;36.20;;;2.30;78.90;;;;;;4894328;28;91131;-77
2021/01/15 10:08:45;;;;;;;43.93;27.80;;;2.20;78.40;;;;;;4893925;28;87622;-80
2021/01/15 10:11:25;;;;;;;45.63;29.37;;;2.10;78.00;;;;;;4897543;28;86924;-81
2021/01/15 10:14:02;;;;;;;48.63;31.23;;;1.90;78.40;;;;;;4871146;28;92219;-81
2021/01/15 10:16:28;;;;;;;50.70;29.80;;;2.00;78.80;;;;;;4878081;28;87122;-80
2021/01/15 10:18:55;;;;;;;46.50;29.67;;;2.00;78.20;;;;;;4877179;28;88228;-79
2021/01/15 10:21:23;;;;;;;46.07;30.17;;;1.90;79.00;;;;;;4896202;28;87368;-79
2021/01/15 10:23:51;;;;;;;43.30;28.03;;;1.90;79.40;;;;;;4895406;28;87702;-79
2021/01/15 10:26:32;;;;;;;45.03;28.60;;;2.00;79.50;;;;;;4894209;28;88428;-79
2021/01/15 10:29:02;;;;;;;49.77;30.57;;;2.00;79.50;;;;;;4895677;28;87045;-79
2021/01/15 10:31:34;;;;;;;46.77;31.07;;;2.20;78.90;;;;;;4877919;28;87726;-79
2021/01/15 10:34:04;;;;;;;49.80;31.13;;;2.20;79.10;;;;;;4893544;28;87371;-79
2021/01/15 10:36:30;;;;;;;52.50;33.07;;;2.30;78.90;;;;;;4879242;28;88434;-80
2021/01/15 10:38:57;;;;;;;53.37;32.53;;;2.40;78.50;;;;;;4910577;28;87399;-81
2021/01/15 10:41:29;;;;;;;48.90;31.07;;;2.40;78.10;;;;;;4914525;28;86778;-78
2021/01/15 10:43:55;;;;;;;54.03;32.80;;;2.40;78.50;;;;;;4892074;28;89125;-79
2021/01/15 10:46:38;;;;;;;57.53;34.10;;;2.40;78.10;;;;;;4877692;28;92034;-79
2021/01/15 10:49:05;;;;;;;55.57;33.97;;;2.40;78.20;;;;;;4890736;28;86949;-80
2021/01/15 10:51:32;;;;;;;49.97;31.43;;;2.30;78.60;;;;;;4891675;28;87086;-78
2021/01/15 10:53:58;;;;;;;47.07;27.97;;;2.20;78.80;;;;;;4874612;28;91244;-78
2021/01/15 10:56:24;;;;;;;41.60;25.43;;;2.10;78.90;;;;;;4876887;28;91430;-79
2021/01/15 10:58:51;;;;;;;42.97;25.97;;;2.10;78.40;;;;;;4897018;28;86975;-78
2021/01/15 11:01:17;;;;;;;42.07;25.80;;;2.10;78.80;;;;;;4876053;28;86376;-78
2021/01/15 11:03:45;;;;;;;41.13;24.70;;;2.10;78.30;;;;;;4887181;28;87388;-79
2021/01/15 11:06:21;;;;;;;40.83;25.67;;;2.00;78.70;;;;;;4888535;28;88502;-78
2021/01/15 11:08:47;;;;;;;44.03;25.30;;;1.90;80.60;;;;;;4903035;28;87824;-78
2021/01/15 11:11:13;;;;;;;41.83;25.07;;;1.80;80.70;;;;;;4872872;28;88230;-78
2021/01/15 11:13:39;;;;;;;44.17;26.53;;;1.80;80.60;;;;;;4873043;28;90652;-79
2021/01/15 11:16:12;;;;;;;45.67;29.83;;;1.90;79.00;;;;;;4890279;28;87603;-78
2021/01/15 11:18:38;;;;;;;40.23;25.27;;;1.80;78.60;;;;;;4874716;28;87658;-78
2021/01/15 11:21:04;;;;;;;43.63;26.47;;;1.80;78.70;;;;;;4890407;28;87601;-79
2021/01/15 11:23:31;;;;;;;35.53;23.47;;;1.60;79.50;;;;;;4905729;28;91854;-78
2021/01/15 11:25:57;;;;;;;39.80;26.70;;;1.60;79.50;;;;;;4887069;28;91581;-79
2021/01/15 11:28:23;;;;;;;39.43;22.90;;;1.60;79.90;;;;;;4887223;28;87089;-79
2021/01/15 11:30:48;;;;;;;35.53;22.33;;;1.70;79.90;;;;;;4887371;28;87117;-78
2021/01/15 11:33:14;;;;;;;32.17;19.70;;;1.80;79.60;;;;;;4886723;28;88933;-79
2021/01/15 11:35:40;;;;;;;31.63;18.80;;;1.90;79.40;;;;;;4872310;28;92784;-78
2021/01/15 11:38:06;;;;;;;27.57;17.00;;;2.10;77.60;;;;;;4872357;28;87280;-78
2021/01/15 11:40:32;;;;;;;29.93;17.07;;;2.20;76.20;;;;;;4889006;28;87087;-79
2021/01/15 11:42:58;;;;;;;27.60;17.77;;;2.20;75.20;;;;;;4889103;28;88796;-79
2021/01/15 11:45:25;;;;;;;24.47;15.03;;;2.30;74.10;;;;;;4905228;28;86940;-79
2021/01/15 11:47:52;;;;;;;27.93;15.70;;;2.20;74.10;;;;;;4888487;28;86971;-78
2021/01/15 11:50:20;;;;;;;26.23;16.20;;;2.20;73.70;;;;;;4889972;28;86883;-79
2021/01/15 11:52:46;;;;;;;28.23;16.70;;;2.20;73.50;;;;;;4889291;28;87924;-80
2021/01/15 11:55:13;;;;;;;42.50;22.03;;;2.20;73.80;;;;;;4888043;28;91553;-79
2021/01/15 11:57:39;;;;;;;30.10;20.17;;;2.20;74.10;;;;;;4905230;28;87823;-78
2021/01/15 12:00:06;;;;;;;31.53;19.70;;;2.20;74.30;;;;;;4869347;28;87742;-78
2021/01/15 12:02:33;;;;;;;32.57;19.47;;;2.20;73.60;;;;;;4885793;28;87973;-78
2021/01/15 12:04:59;;;;;;;37.30;21.90;;;2.20;73.70;;;;;;4868281;28;91547;-78
2021/01/15 12:07:28;;;;;;;44.83;24.20;;;2.20;73.70;;;;;;4901184;28;87571;-79
2021/01/15 12:09:54;;;;;;;39.13;23.43;;;2.20;74.10;;;;;;4868727;28;87191;-78
2021/01/15 12:12:20;;;;;;;39.43;22.17;;;2.20;74.60;;;;;;4901693;28;88202;-78
2021/01/15 12:14:46;;;;;;;40.20;22.87;;;2.20;73.90;;;;;;4886134;28;91437;-78
2021/01/15 12:17:12;;;;;;;39.40;23.47;;;2.20;74.10;;;;;;4884753;28;87034;-78
2021/01/15 12:19:37;;;;;;;42.00;25.03;;;2.20;73.80;;;;;;4885485;28;88269;-78
2021/01/15 12:22:03;;;;;;;43.53;26.13;;;2.20;74.70;;;;;;4869405;28;92363;-79
2021/01/15 12:24:29;;;;;;;43.73;24.83;;;2.30;74.40;;;;;;4901374;28;91931;-76
2021/01/15 12:26:59;;;;;;;42.33;25.80;;;2.40;73.80;;;;;;4888305;28;86839;-77
2021/01/15 12:29:26;;;;;;;44.63;24.93;;;2.40;73.40;;;;;;4902709;28;87815;-78
2021/01/15 12:31:56;;;;;;;40.47;24.10;;;2.40;73.90;;;;;;4908743;28;87329;-77
2021/01/15 12:34:22;;;;;;;38.37;23.30;;;2.50;73.00;;;;;;4876137;28;91468;-77
2021/01/15 12:36:48;;;;;;;40.27;22.63;;;2.50;73.00;;;;;;4873719;28;87052;-78
2021/01/15 12:39:15;;;;;;;33.10;19.53;;;2.60;73.50;;;;;;4902866;28;86360;-77
2021/01/15 12:41:42;;;;;;;30.50;18.83;;;2.60;72.20;;;;;;4873947;28;91960;-79
2021/01/15 12:44:08;;;;;;;33.10;19.33;;;2.60;72.20;;;;;;4883424;28;91598;-79
2021/01/15 12:46:34;;;;;;;31.10;19.50;;;2.70;72.00;;;;;;4898824;28;87802;-79
2021/01/15 12:49:00;;;;;;;32.17;19.43;;;2.80;71.30;;;;;;4890596;28;87161;-78
2021/01/15 12:51:26;;;;;;;35.63;20.37;;;2.70;71.90;;;;;;4885873;28;91481;-78